GMFK

Moulay Ali Cherif Airport

Errachidia, Morocco
METAR GMFK 191800Z 24002KT 9999 SCT026 29/09 Q1023 NOSIG
Observed Flight Rules
Sep-19 @ 18:00 UTC (an hour ago) Visual Flight Rules
Wind Visibility Clouds
240° at 2 knots 10,000+ meters
  • Scattered at 2,600' AGL
Temperatures Readings
Current 29°C / 84°F
Dewpoint 9°C / 48°F
Humidity 29%
Altimeter 30.21" Hg
Pressure 1023 hPa
Elevation 1045
METAR GMFK 191800Z 24002KT 9999 SCT026 29/09 Q1023 NOSIG
Observed Flight Rules
Sep-19 @ 18:00 UTC
(an hour ago)
VFR
Wind Visibility
240° at 2 knots 10,000+ meters
Clouds
  • Scattered at 2,600' AGL
Temperature Dewpoint
29°C / 84°F 9°C / 48°F
Humidity Altimeter Pressure
29% 30.21" Hg 1023 hPa